Time;durP1;ratioP1;P1;durP2;ratioP2;P2;SDS_P1;SDS_P2;PMS_P1;PMS_P2;Temp;Humidity;BMP_temperature;BMP_pressure;BME280_temperature;BME280_humidity;BME280_pressure;Samples;Min_cycle;Max_cycle;Signal;HPM_P1;HPM_P2
2023/10/30 00:00:15;;;;;;;5.97;4.30;;;10.90;99.90;10.20;98654;;;;564393;252;24064;-78
2023/10/30 00:02:43;;;;;;;6.97;4.07;;;10.90;99.90;10.20;98660;;;;559603;252;24162;-80
2023/10/30 00:05:15;;;;;;;5.07;3.97;;;10.90;99.90;10.20;98667;;;;564047;252;24118;-80
2023/10/30 00:07:39;;;;;;;5.97;4.57;;;10.90;99.90;10.20;98675;;;;559692;252;24088;-77
2023/10/30 00:10:07;;;;;;;4.33;3.87;;;11.00;99.90;10.30;98671;;;;571758;251;24091;-78
2023/10/30 00:12:35;;;;;;;8.00;4.37;;;11.00;99.90;10.30;98664;;;;559151;252;24083;-80
2023/10/30 00:15:03;;;;;;;10.97;4.50;;;11.00;99.90;10.30;98671;;;;563874;252;24078;-79
2023/10/30 00:17:32;;;;;;;4.40;3.43;;;11.00;99.90;10.20;98663;;;;559723;252;24202;-76
2023/10/30 00:20:00;;;;;;;5.87;3.43;;;11.00;99.90;10.20;98673;;;;564258;252;24109;-78
2023/10/30 00:22:28;;;;;;;4.67;3.60;;;10.90;99.90;10.20;98668;;;;571812;251;24068;-77
2023/10/30 00:24:56;;;;;;;5.37;3.60;;;10.90;99.90;10.20;98669;;;;563758;252;24089;-79
2023/10/30 00:27:24;;;;;;;9.47;4.33;;;10.90;99.90;10.20;98668;;;;564428;252;24107;-81
2023/10/30 00:29:52;;;;;;;4.50;3.47;;;10.90;99.90;10.10;98675;;;;564525;252;24123;-80
2023/10/30 00:32:20;;;;;;;6.90;3.90;;;10.90;99.90;10.10;98677;;;;564065;252;24096;-85
2023/10/30 00:34:48;;;;;;;3.67;3.37;;;10.80;99.90;10.00;98673;;;;560227;252;24093;-86
2023/10/30 00:37:16;;;;;;;5.40;4.07;;;10.80;99.90;10.00;98667;;;;564190;252;24068;-83
2023/10/30 00:39:45;;;;;;;9.20;4.47;;;10.70;99.90;10.00;98670;;;;573560;249;24087;-82
2023/10/30 00:42:12;;;;;;;6.33;3.97;;;10.70;99.90;9.90;98663;;;;564673;252;24103;-83
2023/10/30 00:44:40;;;;;;;4.33;2.90;;;10.60;99.90;9.90;98673;;;;564708;252;24102;-80
2023/10/30 00:47:08;;;;;;;4.93;3.10;;;10.70;99.90;9.90;98669;;;;564540;252;24103;-82
2023/10/30 00:49:36;;;;;;;3.57;3.27;;;10.70;99.90;9.90;98659;;;;564810;252;24078;-82
2023/10/30 00:52:04;;;;;;;6.17;3.40;;;10.60;99.90;9.90;98667;;;;564381;252;24084;-79
2023/10/30 00:54:32;;;;;;;5.10;2.90;;;10.60;99.90;9.80;98680;;;;564303;252;24126;-79
2023/10/30 00:57:00;;;;;;;4.87;2.87;;;10.60;99.90;9.80;98679;;;;560473;252;24080;-78
2023/10/30 00:59:28;;;;;;;2.93;2.67;;;10.50;99.90;9.70;98683;;;;564525;252;24135;-78
2023/10/30 01:01:56;;;;;;;4.13;3.50;;;10.50;99.90;9.70;98686;;;;564552;252;24070;-80
2023/10/30 01:04:24;;;;;;;3.03;2.73;;;10.50;99.90;9.70;98692;;;;564537;252;24080;-75
2023/10/30 01:06:51;;;;;;;3.87;3.13;;;10.50;99.90;9.70;98693;;;;564414;252;24142;-84
2023/10/30 01:09:19;;;;;;;3.40;3.00;;;10.40;99.90;9.70;98691;;;;563995;252;24099;-79
2023/10/30 01:11:48;;;;;;;4.33;2.97;;;10.40;99.90;9.70;98694;;;;572490;251;24078;-82
2023/10/30 01:14:16;;;;;;;3.53;3.00;;;10.40;99.90;9.60;98690;;;;564173;252;24104;-79
2023/10/30 01:16:44;;;;;;;4.20;2.70;;;10.40;99.90;9.60;98691;;;;564211;252;24091;-79
2023/10/30 01:19:12;;;;;;;4.17;3.00;;;10.40;99.90;9.60;98682;;;;564188;252;24111;-80
2023/10/30 01:21:40;;;;;;;3.10;2.80;;;10.10;99.90;9.60;98687;;;;564142;252;24119;-81
2023/10/30 01:24:08;;;;;;;3.30;2.27;;;10.40;99.90;9.60;98697;;;;564159;252;24086;-81
2023/10/30 01:26:35;;;;;;;3.70;2.57;;;10.30;99.90;9.60;98693;;;;559740;252;24085;-83
2023/10/30 01:29:04;;;;;;;5.93;2.50;;;10.30;99.90;9.60;98701;;;;563824;252;24099;-83
2023/10/30 01:31:32;;;;;;;5.63;2.67;;;10.30;99.90;9.50;98691;;;;563907;252;24116;-78
2023/10/30 01:34:00;;;;;;;5.33;2.47;;;10.30;99.90;9.60;98700;;;;563822;252;24128;-77
2023/10/30 01:36:29;;;;;;;2.67;2.43;;;10.30;99.90;9.50;98695;;;;563782;252;24126;-78
2023/10/30 01:38:56;;;;;;;3.90;2.43;;;10.30;99.90;9.50;98694;;;;563902;252;24098;-81
2023/10/30 01:41:24;;;;;;;2.97;2.67;;;10.30;99.90;9.50;98693;;;;572280;251;24115;-82
2023/10/30 01:43:52;;;;;;;3.33;2.60;;;10.30;99.90;9.50;98696;;;;563810;252;24067;-80
2023/10/30 01:46:21;;;;;;;2.80;2.50;;;10.20;99.90;9.50;98704;;;;563861;252;24085;-79
2023/10/30 01:48:49;;;;;;;3.47;3.10;;;10.20;99.90;9.50;98708;;;;564159;252;24065;-85
2023/10/30 01:51:20;;;;;;;3.10;2.40;;;10.20;99.90;9.50;98706;;;;569693;250;24115;-80
2023/10/30 01:53:45;;;;;;;2.30;1.70;;;10.20;99.90;9.40;98693;;;;566736;252;24084;-84
2023/10/30 01:56:13;;;;;;;3.60;2.57;;;10.20;99.90;9.50;98698;;;;560555;252;24157;-77
2023/10/30 01:58:41;;;;;;;2.70;2.50;;;10.20;99.90;9.50;98697;;;;560827;252;24115;-82
2023/10/30 02:01:09;;;;;;;2.90;2.37;;;10.20;99.90;9.50;98695;;;;572651;250;24099;-79
2023/10/30 02:03:37;;;;;;;2.23;2.03;;;10.20;99.90;9.50;98683;;;;564554;252;24072;-86
2023/10/30 02:06:05;;;;;;;5.43;2.90;;;10.20;99.90;9.50;98695;;;;568888;252;24097;-81
2023/10/30 02:08:33;;;;;;;2.10;1.90;;;10.20;99.90;9.50;98693;;;;560447;252;24142;-85
2023/10/30 02:11:01;;;;;;;4.00;2.37;;;10.20;99.90;9.50;98697;;;;563972;252;24084;-85
2023/10/30 02:13:29;;;;;;;1.97;1.83;;;10.20;99.90;9.50;98696;;;;572516;251;24092;-86
2023/10/30 02:15:57;;;;;;;2.03;1.80;;;10.20;99.90;9.50;98696;;;;564392;252;24163;-85
2023/10/30 02:18:25;;;;;;;2.40;2.17;;;10.20;99.90;9.50;98700;;;;564364;252;24080;-85
2023/10/30 02:20:53;;;;;;;3.83;2.97;;;10.20;99.90;9.40;98705;;;;555525;252;35202;-86
2023/10/30 02:23:21;;;;;;;2.80;2.20;;;10.20;99.90;9.40;98705;;;;559982;252;24103;-84
2023/10/30 02:25:49;;;;;;;5.53;2.17;;;10.20;99.90;9.40;98703;;;;560296;252;24083;-84
2023/10/30 02:28:17;;;;;;;2.03;1.90;;;10.20;99.90;9.40;98716;;;;564113;252;24104;-85
2023/10/30 02:30:44;;;;;;;1.83;1.73;;;10.20;99.90;9.30;98710;;;;559866;252;24139;-86
2023/10/30 02:33:12;;;;;;;1.87;1.77;;;10.10;99.90;9.30;98716;;;;563825;252;25170;-86
2023/10/30 02:35:40;;;;;;;7.43;1.60;;;10.10;99.90;9.30;98723;;;;563671;252;24220;-85
2023/10/30 02:38:08;;;;;;;2.63;1.73;;;10.10;99.90;9.30;98729;;;;559398;252;24094;-78
2023/10/30 02:40:36;;;;;;;1.47;1.37;;;10.10;99.90;9.30;98718;;;;563735;252;24094;-74
2023/10/30 02:43:04;;;;;;;11.23;1.67;;;10.10;99.90;9.30;98719;;;;572323;251;24136;-76
2023/10/30 02:45:32;;;;;;;1.60;1.50;;;10.10;99.90;9.40;98726;;;;564240;252;24097;-79
2023/10/30 02:48:01;;;;;;;1.80;1.67;;;10.10;99.90;9.40;98733;;;;564459;252;24186;-80
2023/10/30 02:50:28;;;;;;;1.93;1.33;;;10.10;99.90;9.40;98734;;;;564386;252;24085;-80
2023/10/30 02:52:59;;;;;;;1.97;1.87;;;10.10;99.90;9.30;98729;;;;565189;252;24081;-77
2023/10/30 02:55:24;;;;;;;1.97;1.83;;;10.10;99.90;9.40;98732;;;;567671;252;24127;-77
2023/10/30 02:57:52;;;;;;;3.63;1.60;;;10.10;99.90;9.30;98734;;;;565376;252;24118;-76
2023/10/30 03:00:20;;;;;;;1.60;1.50;;;10.10;99.90;9.30;98725;;;;565011;252;24114;-77
2023/10/30 03:02:48;;;;;;;5.47;1.60;;;10.10;99.90;9.30;98721;;;;566010;252;24117;-76
2023/10/30 03:05:16;;;;;;;1.40;1.30;;;10.10;99.90;9.30;98723;;;;565464;252;24092;-75
2023/10/30 03:07:44;;;;;;;4.27;1.57;;;10.10;99.90;9.40;98715;;;;565294;252;24137;-76
2023/10/30 03:10:12;;;;;;;2.77;1.87;;;10.10;99.90;9.40;98721;;;;565243;252;24111;-81
2023/10/30 03:12:40;;;;;;;1.33;1.23;;;10.10;99.90;9.40;98728;;;;565247;252;24134;-83
2023/10/30 03:15:11;;;;;;;1.53;1.43;;;10.10;99.90;9.40;98731;;;;572854;250;24100;-82
2023/10/30 03:17:35;;;;;;;1.87;1.47;;;10.10;99.90;9.40;98730;;;;560101;252;24090;-83
2023/10/30 03:20:04;;;;;;;5.60;1.40;;;10.20;99.90;9.40;98734;;;;564363;252;24095;-75
2023/10/30 03:22:31;;;;;;;4.67;1.50;;;10.20;99.90;9.40;98744;;;;560115;252;24120;-86
2023/10/30 03:25:04;;;;;;;2.57;1.40;;;10.20;99.90;9.40;98746;;;;564808;252;24157;-77
2023/10/30 03:27:29;;;;;;;4.67;1.50;;;10.20;99.90;9.40;98760;;;;560064;252;24146;-77
2023/10/30 03:29:56;;;;;;;1.57;1.23;;;10.20;99.90;9.40;98765;;;;564140;252;24072;-76
2023/10/30 03:32:24;;;;;;;1.57;1.20;;;10.20;99.90;9.50;98766;;;;560359;252;24146;-76
2023/10/30 03:34:52;;;;;;;3.03;1.77;;;10.20;99.90;9.50;98771;;;;559094;252;35124;-83
2023/10/30 03:37:20;;;;;;;3.13;1.53;;;10.20;99.90;9.40;98775;;;;564143;252;24133;-84
2023/10/30 03:39:48;;;;;;;3.13;1.13;;;10.20;99.90;9.50;98781;;;;564193;252;24083;-85
2023/10/30 03:42:16;;;;;;;1.60;1.20;;;10.20;99.90;9.40;98771;;;;564113;252;24080;-86
2023/10/30 03:44:44;;;;;;;1.20;1.17;;;10.20;99.90;9.40;98783;;;;571824;251;24093;-83
2023/10/30 03:47:12;;;;;;;3.67;1.13;;;10.20;99.90;9.40;98785;;;;563616;252;24098;-84
2023/10/30 03:49:40;;;;;;;2.70;1.20;;;10.20;99.90;9.40;98795;;;;563832;252;24101;-85
2023/10/30 03:52:08;;;;;;;2.10;1.20;;;10.20;99.90;9.40;98791;;;;563753;252;24093;-80
2023/10/30 03:54:36;;;;;;;3.03;1.73;;;10.20;99.90;9.40;98786;;;;563865;252;24152;-77
2023/10/30 03:57:04;;;;;;;4.03;1.50;;;10.20;99.90;9.40;98779;;;;563806;252;24087;-77
2023/10/30 03:59:32;;;;;;;1.77;1.30;;;10.20;99.90;9.40;98786;;;;559285;252;24096;-77
2023/10/30 04:02:00;;;;;;;1.23;0.97;;;10.20;99.90;9.40;98803;;;;560126;252;24083;-78
2023/10/30 04:04:28;;;;;;;1.40;1.20;;;10.20;99.90;9.40;98797;;;;564094;252;24138;-84
2023/10/30 04:06:56;;;;;;;4.80;1.20;;;10.20;99.90;9.30;98807;;;;564214;252;24105;-86
2023/10/30 04:09:24;;;;;;;1.20;1.10;;;10.10;99.90;9.30;98804;;;;563912;252;24114;-79
2023/10/30 04:11:52;;;;;;;2.23;1.23;;;10.10;99.90;9.30;98802;;;;564129;252;24096;-78
2023/10/30 04:14:20;;;;;;;1.60;1.50;;;10.10;99.90;9.30;98804;;;;560643;252;35188;-79
2023/10/30 04:16:48;;;;;;;1.77;1.67;;;10.10;99.90;9.30;98798;;;;572760;250;24186;-76
2023/10/30 04:19:16;;;;;;;1.33;1.20;;;10.10;99.90;9.30;98800;;;;564521;252;24117;-78
2023/10/30 04:21:44;;;;;;;1.80;1.27;;;10.10;99.90;9.40;98795;;;;564282;252;24091;-76
2023/10/30 04:24:12;;;;;;;2.27;0.97;;;10.20;99.90;9.40;98813;;;;564340;252;24103;-78
2023/10/30 04:26:40;;;;;;;1.30;1.20;;;10.20;99.90;9.40;98813;;;;564326;252;24080;-77
2023/10/30 04:29:08;;;;;;;1.90;1.13;;;10.20;99.90;9.40;98811;;;;564404;252;24099;-78
2023/10/30 04:31:36;;;;;;;1.20;1.13;;;10.20;99.90;9.30;98819;;;;564161;252;24168;-76
2023/10/30 04:34:04;;;;;;;1.13;1.13;;;10.20;99.90;9.30;98808;;;;564359;252;24089;-76
2023/10/30 04:36:33;;;;;;;1.10;1.00;;;10.20;99.90;9.40;98798;;;;564337;252;25175;-76
2023/10/30 04:39:01;;;;;;;0.83;0.83;;;10.20;99.90;9.40;98804;;;;564386;252;24095;-76
2023/10/30 04:41:29;;;;;;;1.20;1.10;;;10.20;99.90;9.40;98809;;;;564454;252;24105;-78
2023/10/30 04:43:57;;;;;;;1.60;1.30;;;10.20;99.90;9.40;98815;;;;560398;252;24115;-76
2023/10/30 04:46:29;;;;;;;2.00;1.30;;;10.30;99.90;9.40;98813;;;;572051;251;24168;-76
2023/10/30 04:48:53;;;;;;;0.80;0.80;;;10.30;99.90;9.50;98811;;;;559786;252;24084;-77
2023/10/30 04:51:21;;;;;;;2.33;1.60;;;10.30;99.90;9.50;98809;;;;558877;252;35108;-78
2023/10/30 04:53:49;;;;;;;1.80;1.53;;;10.30;99.90;9.50;98819;;;;563863;252;24114;-76
2023/10/30 04:56:17;;;;;;;3.63;1.30;;;10.40;99.90;9.60;98823;;;;563608;252;24163;-78
2023/10/30 04:58:45;;;;;;;1.00;1.00;;;10.40;99.90;9.50;98806;;;;563980;252;24116;-76
2023/10/30 05:01:13;;;;;;;1.20;1.10;;;10.40;99.90;9.50;98818;;;;563880;252;24090;-77
2023/10/30 05:03:41;;;;;;;1.20;1.10;;;10.40;99.90;9.50;98813;;;;560137;252;24116;-78
2023/10/30 05:06:09;;;;;;;1.10;1.10;;;10.40;99.90;9.60;98813;;;;564111;252;24081;-76
2023/10/30 05:08:36;;;;;;;2.10;1.50;;;10.40;99.90;9.60;98821;;;;559215;252;35119;-76
2023/10/30 05:11:04;;;;;;;1.37;1.23;;;10.40;99.90;9.60;98824;;;;564066;252;24091;-77
2023/10/30 05:13:33;;;;;;;1.37;0.97;;;10.50;99.90;9.60;98815;;;;564152;252;24113;-76
2023/10/30 05:16:00;;;;;;;1.03;1.00;;;10.50;99.90;9.60;98810;;;;559754;252;24065;-77
2023/10/30 05:18:32;;;;;;;3.90;0.83;;;10.50;99.90;9.60;98811;;;;571832;251;24168;-76
2023/10/30 05:20:56;;;;;;;1.50;1.00;;;10.50;99.90;9.60;98808;;;;563388;252;24196;-79
2023/10/30 05:23:24;;;;;;;1.07;1.07;;;10.50;99.90;9.70;98817;;;;571902;251;24181;-76
2023/10/30 05:25:52;;;;;;;4.27;1.00;;;10.50;99.90;9.70;98823;;;;565162;252;24068;-76
2023/10/30 05:28:20;;;;;;;1.30;1.30;;;10.50;99.90;9.60;98826;;;;564812;252;24100;-82
2023/10/30 05:30:48;;;;;;;7.43;1.00;;;10.50;99.90;9.60;98823;;;;564633;252;24119;-77
2023/10/30 05:33:15;;;;;;;3.17;0.90;;;10.50;99.90;9.60;98832;;;;564954;252;24096;-81
2023/10/30 05:35:43;;;;;;;1.77;1.17;;;10.50;99.90;9.60;98841;;;;564730;252;24075;-84
2023/10/30 05:38:11;;;;;;;3.50;1.20;;;10.50;99.90;9.60;98842;;;;564739;252;24099;-79
2023/10/30 05:40:43;;;;;;;5.77;1.17;;;10.50;99.90;9.60;98836;;;;564732;252;24096;-83
2023/10/30 05:43:08;;;;;;;2.10;1.30;;;10.50;99.90;9.60;98837;;;;564620;252;24134;-83
2023/10/30 05:45:36;;;;;;;0.90;0.90;;;10.50;99.90;9.60;98834;;;;564440;252;24112;-78
2023/10/30 05:48:04;;;;;;;1.63;1.00;;;10.50;99.90;9.60;98820;;;;572181;251;24096;-75
2023/10/30 05:50:32;;;;;;;1.23;1.17;;;10.50;99.90;9.60;98839;;;;559547;252;24095;-76
2023/10/30 05:52:59;;;;;;;1.07;1.07;;;10.50;99.90;9.60;98849;;;;564045;252;24105;-76
2023/10/30 05:55:27;;;;;;;1.47;1.07;;;10.50;99.90;9.60;98848;;;;564054;252;24138;-76
2023/10/30 05:57:55;;;;;;;0.80;0.80;;;10.50;99.90;9.70;98858;;;;564064;252;24103;-76
2023/10/30 06:00:23;;;;;;;0.67;0.67;;;10.50;99.90;9.70;98853;;;;560013;252;24212;-76
2023/10/30 06:02:51;;;;;;;1.53;1.10;;;10.50;99.90;9.60;98858;;;;564127;252;24103;-76
2023/10/30 06:05:21;;;;;;;3.37;1.30;;;10.50;99.90;9.60;98862;;;;564205;252;24088;-77
2023/10/30 06:07:51;;;;;;;0.80;0.80;;;10.50;99.90;9.60;98867;;;;564167;252;24186;-76
2023/10/30 06:10:19;;;;;;;3.50;0.97;;;10.50;99.90;9.60;98878;;;;563781;252;24146;-78
2023/10/30 06:12:44;;;;;;;0.93;0.93;;;10.40;99.90;9.60;98871;;;;563812;252;24083;-79
2023/10/30 06:15:12;;;;;;;1.23;1.00;;;10.40;99.90;9.70;98870;;;;563611;252;24181;-76
2023/10/30 06:17:40;;;;;;;0.53;0.53;;;10.50;99.90;9.70;98875;;;;564064;252;24113;-76
2023/10/30 06:20:09;;;;;;;0.93;0.70;;;10.60;99.90;9.80;98879;;;;572795;251;24220;-76
2023/10/30 06:22:37;;;;;;;0.80;0.80;;;10.60;99.90;9.90;98887;;;;560525;252;24138;-77
2023/10/30 06:25:07;;;;;;;0.90;0.90;;;10.70;99.90;9.90;98895;;;;565157;252;24138;-77
2023/10/30 06:27:33;;;;;;;2.33;1.00;;;10.70;99.90;10.00;98894;;;;560840;252;24109;-82
2023/10/30 06:30:01;;;;;;;1.77;1.10;;;10.90;99.90;10.20;98881;;;;565157;252;24102;-83
2023/10/30 06:32:30;;;;;;;0.87;0.87;;;10.90;99.90;10.30;98887;;;;565259;252;24095;-83
2023/10/30 06:34:57;;;;;;;0.83;0.83;;;11.10;99.90;10.40;98911;;;;564772;252;24091;-80
2023/10/30 06:37:25;;;;;;;1.30;1.03;;;11.20;99.90;10.50;98921;;;;561346;252;24072;-78
2023/10/30 06:39:53;;;;;;;0.63;0.63;;;11.30;99.90;10.50;98911;;;;565617;252;24077;-78
2023/10/30 06:42:21;;;;;;;6.07;1.00;;;11.30;99.90;10.50;98918;;;;564922;252;24101;-82
2023/10/30 06:44:49;;;;;;;1.40;1.10;;;11.40;99.90;10.50;98925;;;;564852;252;24122;-80
2023/10/30 06:47:17;;;;;;;4.77;1.10;;;11.40;99.90;10.50;98920;;;;560773;252;24110;-79
2023/10/30 06:49:45;;;;;;;2.50;1.17;;;11.30;99.90;10.50;98923;;;;573310;250;24088;-84
2023/10/30 06:52:13;;;;;;;0.80;0.80;;;11.40;99.90;10.70;98928;;;;565291;252;24083;-78
2023/10/30 06:54:42;;;;;;;1.07;0.87;;;11.60;99.90;10.80;98935;;;;564936;252;24094;-81
2023/10/30 06:57:10;;;;;;;3.87;1.20;;;11.50;99.90;11.00;98946;;;;565044;252;24096;-82
2023/10/30 06:59:38;;;;;;;6.50;1.50;;;11.70;99.90;11.00;98958;;;;564782;252;24060;-84
2023/10/30 07:02:06;;;;;;;1.13;0.90;;;11.80;99.90;11.00;98956;;;;564978;252;24124;-83
2023/10/30 07:04:33;;;;;;;1.00;1.00;;;11.80;99.90;10.90;98958;;;;568814;252;24094;-83
2023/10/30 07:07:01;;;;;;;1.30;0.97;;;11.70;99.90;10.90;98971;;;;564290;252;24075;-81
2023/10/30 07:09:39;;;;;;;1.33;1.07;;;11.70;99.90;10.90;98961;;;;560629;252;24199;-81
2023/10/30 07:11:57;;;;;;;1.17;1.07;;;11.70;99.90;10.90;98968;;;;559350;252;24119;-78
2023/10/30 07:14:25;;;;;;;1.10;1.00;;;11.70;99.90;10.90;98977;;;;564393;252;24138;-77
2023/10/30 07:16:53;;;;;;;1.20;1.03;;;11.70;99.90;10.90;98980;;;;564597;252;24106;-82
2023/10/30 07:19:23;;;;;;;1.77;1.10;;;11.70;99.90;10.90;98976;;;;564531;252;24085;-83
2023/10/30 07:21:52;;;;;;;1.13;1.03;;;11.70;99.90;11.00;98991;;;;564609;252;24106;-78
2023/10/30 07:24:20;;;;;;;1.00;1.00;;;11.80;99.90;11.10;98988;;;;564554;252;24105;-81
2023/10/30 07:26:47;;;;;;;4.27;1.30;;;11.90;99.90;11.30;98999;;;;564665;252;24091;-79
2023/10/30 07:29:16;;;;;;;1.70;1.10;;;12.10;99.90;11.40;98996;;;;564728;252;24083;-77
2023/10/30 07:31:44;;;;;;;4.70;1.20;;;12.10;99.90;11.50;98997;;;;565061;252;24064;-78
2023/10/30 07:34:13;;;;;;;0.77;0.77;;;12.20;99.90;11.40;99004;;;;564806;252;25140;-76
2023/10/30 07:36:41;;;;;;;2.67;0.90;;;12.20;99.90;11.40;99016;;;;564661;252;24102;-76
2023/10/30 07:39:09;;;;;;;2.57;0.93;;;12.20;99.90;11.40;99010;;;;564838;252;24107;-78
2023/10/30 07:41:40;;;;;;;2.63;1.23;;;12.20;99.90;11.50;99024;;;;564840;252;24082;-77
2023/10/30 07:44:05;;;;;;;2.63;1.27;;;12.20;99.90;11.50;99028;;;;564789;252;24123;-78
2023/10/30 07:46:33;;;;;;;3.50;1.30;;;12.30;99.90;12.00;99028;;;;560069;252;24148;-78
2023/10/30 07:49:04;;;;;;;5.40;1.20;;;12.60;99.90;13.50;99037;;;;565617;252;24122;-77
2023/10/30 07:51:34;;;;;;;4.50;1.17;;;14.10;99.90;14.50;99048;;;;561710;252;24098;-77
2023/10/30 07:54:00;;;;;;;5.40;1.00;;;16.30;99.90;15.70;99054;;;;561315;252;24077;-80
2023/10/30 07:56:28;;;;;;;3.07;1.27;;;16.30;99.90;15.70;99071;;;;561412;252;24088;-78
2023/10/30 07:58:55;;;;;;;1.27;0.83;;;16.40;99.90;15.70;99057;;;;565211;252;24094;-76
2023/10/30 08:01:23;;;;;;;1.10;0.80;;;16.40;99.90;15.30;99068;;;;565018;252;24198;-78
2023/10/30 08:03:52;;;;;;;1.60;1.07;;;16.40;99.90;15.90;99063;;;;561134;252;24108;-77
2023/10/30 08:06:24;;;;;;;5.53;1.53;;;16.40;99.90;17.90;99072;;;;564406;252;24070;-77
2023/10/30 08:08:48;;;;;;;5.13;1.40;;;18.20;99.90;19.50;99082;;;;564234;252;24142;-77
2023/10/30 08:11:16;;;;;;;2.93;1.50;;;19.90;99.90;20.80;99091;;;;564262;252;24154;-78
2023/10/30 08:13:47;;;;;;;4.00;1.53;;;22.00;99.90;21.20;99098;;;;568802;252;24098;-80
2023/10/30 08:16:15;;;;;;;1.30;1.20;;;21.90;99.90;21.90;99093;;;;564337;252;24136;-76
2023/10/30 08:18:46;;;;;;;2.20;1.03;;;22.90;99.90;22.90;99093;;;;564228;252;24092;-78
2023/10/30 08:21:16;;;;;;;2.73;1.10;;;24.00;99.90;24.50;99098;;;;560359;252;23131;-80
2023/10/30 08:23:44;;;;;;;1.50;1.20;;;25.40;99.90;25.70;99112;;;;572696;251;24138;-78
2023/10/30 08:26:25;;;;;;;3.40;0.90;;;26.60;99.90;26.60;99110;;;;564300;252;23103;-78
2023/10/30 08:28:53;;;;;;;2.37;1.10;;;27.60;99.90;26.30;99097;;;;560534;252;23137;-78
2023/10/30 08:31:22;;;;;;;1.60;0.90;;;27.70;99.90;26.50;99094;;;;564278;252;23112;-77
2023/10/30 08:33:48;;;;;;;2.70;1.00;;;27.70;99.90;27.20;99110;;;;564356;252;23130;-77
2023/10/30 08:36:22;;;;;;;7.07;1.33;;;28.20;99.90;26.40;99103;;;;559038;252;35191;-77
2023/10/30 08:38:50;;;;;;;2.13;1.13;;;27.90;99.90;24.60;99090;;;;571922;251;23169;-77
2023/10/30 08:41:28;;;;;;;;;;;;;;;;;;;;;
2023/10/30 08:43:46;;;;;;;1.20;0.90;;;26.10;99.90;23.70;99099;;;;563328;252;23123;-77
2023/10/30 08:46:18;;;;;;;4.70;1.00;;;25.40;99.90;23.60;99099;;;;568220;252;23097;-77
2023/10/30 08:48:46;;;;;;;2.67;1.27;;;25.40;99.90;24.50;99106;;;;555554;252;24180;-78
2023/10/30 08:51:14;;;;;;;1.67;0.90;;;25.30;99.90;23.90;99122;;;;560078;252;24100;-77
2023/10/30 08:53:43;;;;;;;2.30;1.10;;;25.20;99.90;23.50;99117;;;;572364;251;23098;-76
2023/10/30 08:56:11;;;;;;;1.63;0.80;;;24.80;99.90;24.10;99118;;;;564707;252;23145;-77
2023/10/30 08:58:39;;;;;;;1.50;0.83;;;25.10;99.90;24.80;99114;;;;564651;250;23086;-77
2023/10/30 09:01:07;;;;;;;2.57;1.00;;;25.70;97.60;25.70;99113;;;;565617;252;23152;-85
2023/10/30 09:03:35;;;;;;;0.97;0.80;;;26.50;95.30;26.20;99131;;;;565101;252;24138;-81
2023/10/30 09:06:06;;;;;;;4.43;1.20;;;27.20;93.10;26.70;99128;;;;564947;252;24178;-80
2023/10/30 09:08:31;;;;;;;1.97;1.20;;;27.70;92.30;27.10;99133;;;;568632;252;23147;-81
2023/10/30 09:11:02;;;;;;;1.10;1.03;;;28.40;85.90;27.30;99129;;;;564337;252;23121;-81
2023/10/30 09:13:27;;;;;;;2.45;1.20;;;28.30;85.70;27.40;99142;;;;563944;252;23129;-78
2023/10/30 09:15:55;;;;;;;2.50;1.58;;;28.50;82.40;26.80;99141;;;;564181;252;24163;-78
2023/10/30 09:18:23;;;;;;;4.47;1.17;;;28.00;81.80;25.70;99147;;;;563934;252;23131;-79
2023/10/30 09:20:51;;;;;;;1.77;1.40;;;27.00;84.60;24.30;99149;;;;563985;252;24143;-80
2023/10/30 09:23:19;;;;;;;1.37;1.03;;;25.80;86.60;22.90;99167;;;;564099;252;24146;-77
2023/10/30 09:25:48;;;;;;;2.07;1.10;;;24.50;90.90;21.80;99162;;;;572389;251;23097;-80
2023/10/30 09:28:16;;;;;;;3.33;1.80;;;22.50;95.50;21.10;99162;;;;564349;252;24104;-81
2023/10/30 09:30:44;;;;;;;2.20;1.10;;;22.40;95.40;20.20;99170;;;;564357;252;24081;-80
2023/10/30 09:33:11;;;;;;;3.13;1.27;;;21.50;96.00;19.50;99169;;;;564418;252;24108;-81
2023/10/30 09:35:42;;;;;;;3.07;1.30;;;20.70;96.50;19.00;99153;;;;568574;252;24099;-78
2023/10/30 09:38:07;;;;;;;4.20;1.17;;;20.10;98.80;18.40;99175;;;;564053;252;24133;-79
2023/10/30 09:40:35;;;;;;;2.23;1.20;;;19.40;99.90;17.90;99174;;;;564204;252;24251;-78
2023/10/30 09:43:07;;;;;;;1.50;1.20;;;18.90;99.90;17.60;99184;;;;560015;252;24113;-80
2023/10/30 09:45:31;;;;;;;1.20;1.10;;;18.50;99.90;17.30;99173;;;;564160;252;24106;-81
2023/10/30 09:48:02;;;;;;;1.83;1.10;;;18.20;99.90;17.10;99175;;;;564208;252;24068;-82
2023/10/30 09:50:27;;;;;;;0.80;0.80;;;17.90;99.90;16.70;99186;;;;560188;252;24090;-84
2023/10/30 09:52:55;;;;;;;1.87;1.03;;;17.60;99.90;16.40;99189;;;;560400;252;24072;-79
2023/10/30 09:55:23;;;;;;;2.03;0.90;;;17.20;99.90;16.20;99192;;;;555231;252;24105;-83
2023/10/30 09:57:53;;;;;;;1.17;0.83;;;16.90;99.90;15.90;99186;;;;564229;252;24073;-79
2023/10/30 10:00:21;;;;;;;4.40;2.10;;;16.70;99.90;15.80;99191;;;;567124;251;35104;-78
2023/10/30 10:02:53;;;;;;;3.00;1.20;;;16.30;99.90;15.50;99191;;;;559886;252;24132;-77
2023/10/30 10:05:18;;;;;;;2.17;0.70;;;16.20;99.90;15.30;99203;;;;559787;252;24096;-78
2023/10/30 10:07:46;;;;;;;2.00;1.13;;;16.10;99.90;15.10;99198;;;;563892;252;24080;-78
2023/10/30 10:10:18;;;;;;;0.70;0.70;;;15.90;99.90;14.90;99179;;;;560118;250;24119;-75
2023/10/30 10:12:41;;;;;;;4.13;1.23;;;15.60;99.90;14.80;99194;;;;565291;252;24099;-83
2023/10/30 10:15:09;;;;;;;3.13;1.20;;;15.50;99.90;14.80;99187;;;;564875;252;24134;-82
2023/10/30 10:17:44;;;;;;;1.53;0.80;;;15.50;99.90;14.80;99195;;;;564878;252;24069;-79
2023/10/30 10:20:10;;;;;;;3.20;0.77;;;15.50;99.90;14.90;99206;;;;564171;252;24068;-83
2023/10/30 10:22:37;;;;;;;4.43;2.03;;;15.60;99.90;15.10;99213;;;;560523;252;24117;-83
2023/10/30 10:25:18;;;;;;;2.50;1.63;;;15.80;99.90;15.40;99211;;;;555836;252;24090;-85
2023/10/30 10:27:41;;;;;;;3.80;1.20;;;16.00;99.90;15.50;99224;;;;560956;252;24072;-77
2023/10/30 10:30:09;;;;;;;4.10;0.83;;;16.20;99.90;15.50;99208;;;;560738;252;24060;-82
2023/10/30 10:32:37;;;;;;;1.13;0.77;;;16.20;99.90;15.50;99233;;;;560136;252;24142;-79
2023/10/30 10:35:07;;;;;;;5.57;0.77;;;16.20;99.90;15.40;99214;;;;564671;252;24072;-82
2023/10/30 10:37:35;;;;;;;1.73;0.70;;;16.20;99.90;15.30;99230;;;;560265;252;24141;-81
2023/10/30 10:40:05;;;;;;;3.60;1.17;;;16.00;99.90;15.20;99230;;;;564620;252;24134;-82
2023/10/30 10:42:31;;;;;;;3.00;1.03;;;15.90;99.90;15.20;99226;;;;559774;252;24098;-85
2023/10/30 10:44:59;;;;;;;5.90;1.40;;;15.90;99.90;15.20;99231;;;;560330;252;24062;-80
2023/10/30 10:47:30;;;;;;;4.87;0.90;;;15.90;99.90;15.20;99225;;;;560002;252;24084;-81
2023/10/30 10:49:57;;;;;;;2.77;0.80;;;15.80;99.90;15.10;99228;;;;560264;252;24080;-81
2023/10/30 10:52:24;;;;;;;1.13;1.03;;;15.80;99.90;15.00;99230;;;;568186;252;24129;-78
2023/10/30 10:55:05;;;;;;;2.77;0.90;;;15.80;99.90;14.90;99228;;;;559723;252;24084;-81
2023/10/30 10:57:33;;;;;;;6.03;1.07;;;15.70;99.90;14.80;99228;;;;572187;251;24085;-82
2023/10/30 11:00:03;;;;;;;4.53;1.37;;;15.50;99.90;14.60;99222;;;;560143;252;24113;-78
2023/10/30 11:02:32;;;;;;;1.23;0.90;;;15.40;99.90;14.50;99232;;;;560102;252;24083;-80
2023/10/30 11:05:00;;;;;;;3.53;1.30;;;15.20;99.90;14.40;99237;;;;563342;252;24092;-79
2023/10/30 11:07:29;;;;;;;0.70;0.70;;;15.10;99.90;14.40;99226;;;;563585;252;24088;-79
2023/10/30 11:09:56;;;;;;;2.40;0.93;;;15.10;99.90;14.40;99236;;;;559800;252;24105;-83
2023/10/30 11:12:51;;;;;;;1.27;0.80;;;15.10;99.90;14.30;99231;;;;560126;252;24154;-81
2023/10/30 11:15:20;;;;;;;3.07;1.00;;;15.00;99.90;14.30;99233;;;;560100;252;24091;-82
2023/10/30 11:18:21;;;;;;;3.23;0.87;;;15.00;99.90;14.20;99238;;;;560073;252;24173;-81
2023/10/30 11:20:48;;;;;;;3.97;1.37;;;14.90;99.90;14.10;99238;;;;553685;255;24139;-83
2023/10/30 11:23:16;;;;;;;2.57;0.90;;;14.80;99.90;14.00;99247;;;;557665;252;24115;-79
2023/10/30 11:25:55;;;;;;;1.10;0.63;;;14.70;99.90;14.00;99241;;;;556739;256;24181;-82